createdAt,value
2017-09-29T00:01:51.718Z,66.20
2017-09-29T00:04:26.448Z,66.40
2017-09-29T00:07:01.015Z,66.60
2017-09-29T00:09:35.575Z,66.60
2017-09-29T00:12:10.070Z,66.60
2017-09-29T00:14:44.625Z,66.90
2017-09-29T00:17:19.270Z,66.90
2017-09-29T00:19:54.611Z,66.90
2017-09-29T00:22:29.083Z,66.80
2017-09-29T00:25:11.001Z,66.80
2017-09-29T00:27:45.451Z,66.90
2017-09-29T00:30:19.825Z,66.90
2017-09-29T00:32:54.442Z,67.00
2017-09-29T00:35:29.062Z,67.00
2017-09-29T00:38:03.097Z,66.90
2017-09-29T00:40:37.368Z,67.00
2017-09-29T00:43:12.086Z,67.10
2017-09-29T00:45:46.668Z,67.10
2017-09-29T00:48:21.159Z,67.40
2017-09-29T00:50:55.385Z,67.40
2017-09-29T00:53:29.939Z,67.60
2017-09-29T00:56:04.519Z,67.60
2017-09-29T00:58:39.067Z,67.70
2017-09-29T01:01:13.623Z,67.90
2017-09-29T01:03:48.143Z,67.90
2017-09-29T01:06:22.698Z,67.90
2017-09-29T01:08:57.107Z,67.90
2017-09-29T01:11:31.660Z,68.10
2017-09-29T01:14:06.298Z,68.10
2017-09-29T01:16:40.179Z,68.20
2017-09-29T01:19:14.123Z,68.30
2017-09-29T01:21:48.178Z,68.40
2017-09-29T01:24:22.005Z,68.60
2017-09-29T01:26:56.318Z,68.50
2017-09-29T01:29:30.512Z,68.50
2017-09-29T01:32:04.307Z,68.30
2017-09-29T01:34:38.846Z,68.70
2017-09-29T01:37:13.096Z,68.70
2017-09-29T01:39:47.208Z,69.00
2017-09-29T01:42:21.151Z,69.00
2017-09-29T01:44:55.563Z,69.10
2017-09-29T01:47:29.879Z,69.10
2017-09-29T01:50:13.687Z,69.10
2017-09-29T01:52:47.551Z,68.90
2017-09-29T01:55:21.421Z,69.30
2017-09-29T01:57:55.359Z,69.50
2017-09-29T02:00:29.334Z,69.70
2017-09-29T02:03:03.307Z,69.90
2017-09-29T02:05:37.240Z,70.10
2017-09-29T02:08:11.125Z,70.30
2017-09-29T02:10:45.066Z,70.20
2017-09-29T02:13:18.942Z,70.10
2017-09-29T02:15:52.966Z,70.10
2017-09-29T02:18:26.722Z,70.30
2017-09-29T02:21:00.614Z,70.00
2017-09-29T02:23:34.795Z,69.80
2017-09-29T02:26:08.582Z,69.60
2017-09-29T02:28:42.367Z,69.50
2017-09-29T02:31:17.109Z,69.30
2017-09-29T02:33:50.913Z,69.20
2017-09-29T02:36:24.890Z,69.90
2017-09-29T02:38:58.813Z,70.20
2017-09-29T02:41:32.715Z,70.30
2017-09-29T02:44:06.651Z,70.30
2017-09-29T02:46:40.634Z,70.40
2017-09-29T02:49:14.439Z,70.50
2017-09-29T02:51:48.298Z,70.80
2017-09-29T02:54:22.450Z,70.90
2017-09-29T02:57:00.202Z,71.00
2017-09-29T02:59:39.490Z,71.10
2017-09-29T03:02:16.086Z,71.00
2017-09-29T03:04:53.807Z,71.70
2017-09-29T03:07:27.546Z,71.20
2017-09-29T03:10:02.253Z,71.20
2017-09-29T03:12:41.367Z,71.30
2017-09-29T03:15:15.860Z,71.40
2017-09-29T03:17:50.478Z,71.50
2017-09-29T03:20:25.165Z,71.90
2017-09-29T03:22:59.594Z,72.00
2017-09-29T03:25:34.209Z,72.00
2017-09-29T03:28:08.495Z,72.10
2017-09-29T03:30:43.346Z,72.20
2017-09-29T03:33:17.930Z,72.10
2017-09-29T03:35:52.314Z,72.20
2017-09-29T03:38:26.822Z,72.30
2017-09-29T03:41:01.436Z,72.60
2017-09-29T03:43:35.995Z,72.80
2017-09-29T03:46:10.550Z,73.00
2017-09-29T03:48:45.766Z,73.00
2017-09-29T03:51:22.439Z,73.10
2017-09-29T03:53:58.653Z,72.90
2017-09-29T03:56:34.182Z,72.70
2017-09-29T03:59:10.797Z,72.80
2017-09-29T04:01:45.367Z,72.70
2017-09-29T04:04:19.989Z,72.60
2017-09-29T04:06:54.499Z,72.50
2017-09-29T04:09:29.022Z,72.50
2017-09-29T04:12:02.930Z,72.60
2017-09-29T04:14:37.290Z,72.90
2017-09-29T04:17:11.574Z,73.20
2017-09-29T04:19:46.037Z,73.10
2017-09-29T04:22:20.235Z,73.20
2017-09-29T04:24:54.693Z,73.40
2017-09-29T04:27:29.267Z,73.40
2017-09-29T04:30:10.198Z,73.50
2017-09-29T04:32:44.880Z,73.70
2017-09-29T04:35:19.379Z,73.80
2017-09-29T04:37:54.003Z,73.80
2017-09-29T04:40:28.614Z,73.90
2017-09-29T04:43:02.999Z,73.90
2017-09-29T04:45:37.548Z,73.90
2017-09-29T04:48:12.014Z,73.80
2017-09-29T04:50:46.643Z,73.80
2017-09-29T04:53:21.300Z,73.70
2017-09-29T04:55:55.840Z,73.60
2017-09-29T04:58:30.503Z,73.60
2017-09-29T05:01:05.047Z,73.80
2017-09-29T05:03:39.678Z,73.60
2017-09-29T05:06:14.315Z,73.80
2017-09-29T05:08:49.713Z,73.90
2017-09-29T05:11:24.197Z,73.80
2017-09-29T05:13:58.616Z,73.70
2017-09-29T05:16:33.279Z,73.60
2017-09-29T05:19:07.885Z,73.40
2017-09-29T05:21:42.530Z,73.20
2017-09-29T05:24:17.414Z,72.80
2017-09-29T05:26:52.000Z,72.60
2017-09-29T05:29:26.635Z,72.60
2017-09-29T05:32:01.271Z,72.50
2017-09-29T05:34:35.934Z,72.40
2017-09-29T05:37:10.410Z,72.40
2017-09-29T05:45:43.487Z,71.40
2017-09-29T05:48:18.057Z,70.70
2017-09-29T05:50:52.582Z,70.80
2017-09-29T05:53:27.054Z,70.60
2017-09-29T05:56:01.609Z,70.50
2017-09-29T05:58:36.350Z,70.30
2017-09-29T06:01:10.907Z,70.30
2017-09-29T06:03:45.805Z,70.10
2017-09-29T06:06:20.334Z,70.00
2017-09-29T06:08:54.591Z,69.90
2017-09-29T06:11:29.125Z,69.50
2017-09-29T06:14:03.773Z,69.50
2017-09-29T06:16:38.289Z,69.10
2017-09-29T06:19:12.926Z,68.60
2017-09-29T06:21:47.444Z,68.30
2017-09-29T06:24:22.066Z,68.00
2017-09-29T06:26:56.622Z,67.30
2017-09-29T06:29:31.064Z,66.00
2017-09-29T06:32:05.685Z,65.70
2017-09-29T06:34:40.310Z,65.10
2017-09-29T06:37:14.917Z,63.70
2017-09-29T06:39:49.357Z,63.60
2017-09-29T06:42:24.045Z,62.60
2017-09-29T06:44:58.513Z,62.00
2017-09-29T06:47:33.174Z,60.90
2017-09-29T06:50:13.957Z,60.70
2017-09-29T06:52:48.655Z,59.50
2017-09-29T06:55:23.155Z,59.00
2017-09-29T06:57:58.416Z,57.90
2017-09-29T07:00:33.030Z,57.80
2017-09-29T07:03:07.591Z,56.90
2017-09-29T07:05:42.119Z,56.20
2017-09-29T07:08:16.700Z,56.00
2017-09-29T07:10:51.298Z,55.60
2017-09-29T07:13:25.937Z,55.10
2017-09-29T07:16:00.589Z,54.30
2017-09-29T07:18:35.114Z,53.70
2017-09-29T07:21:09.681Z,53.00
2017-09-29T07:23:43.826Z,52.20
2017-09-29T07:26:19.693Z,51.40
2017-09-29T07:28:55.005Z,51.40
2017-09-29T07:31:30.817Z,50.30
2017-09-29T07:34:06.001Z,49.20
2017-09-29T07:36:41.597Z,49.10
2017-09-29T07:39:16.357Z,49.10
2017-09-29T07:41:50.631Z,48.70
2017-09-29T07:44:25.284Z,47.80
2017-09-29T07:46:59.886Z,44.50
2017-09-29T07:49:34.323Z,41.10
2017-09-29T07:52:08.909Z,37.70
2017-09-29T07:54:43.523Z,33.80
2017-09-29T07:57:18.841Z,29.40
2017-09-29T07:59:53.321Z,29.20
2017-09-29T08:02:27.907Z,27.20
2017-09-29T08:05:02.374Z,25.60
2017-09-29T08:07:36.930Z,24.50
2017-09-29T08:10:16.169Z,23.70
2017-09-29T08:12:50.690Z,22.60
2017-09-29T08:15:25.221Z,23.30
2017-09-29T08:17:59.757Z,22.20
2017-09-29T08:20:34.354Z,21.80
2017-09-29T08:23:09.041Z,21.40
2017-09-29T08:25:43.425Z,20.80
2017-09-29T08:28:18.685Z,20.30
2017-09-29T08:30:53.311Z,20.30
2017-09-29T08:33:28.634Z,20.00
2017-09-29T08:36:03.274Z,20.00
2017-09-29T08:38:37.726Z,20.00
2017-09-29T08:41:13.133Z,19.80
2017-09-29T08:43:47.638Z,19.40
2017-09-29T08:46:22.190Z,19.30
2017-09-29T08:48:57.630Z,19.20
2017-09-29T08:51:32.261Z,19.20
2017-09-29T08:54:07.587Z,18.70
2017-09-29T08:56:42.206Z,18.70
2017-09-29T08:59:16.913Z,19.10
2017-09-29T09:01:51.602Z,18.70
2017-09-29T09:04:26.078Z,18.50
2017-09-29T09:07:00.702Z,18.40
2017-09-29T09:09:35.220Z,18.30
2017-09-29T09:12:09.774Z,17.90
2017-09-29T09:14:44.284Z,17.60
2017-09-29T09:17:18.817Z,18.10
2017-09-29T09:19:53.265Z,17.80
2017-09-29T09:22:28.574Z,17.80
2017-09-29T09:27:44.870Z,17.90
2017-09-29T09:30:19.305Z,17.90
2017-09-29T09:32:54.045Z,17.70
2017-09-29T09:35:28.801Z,17.30
2017-09-29T09:38:03.468Z,17.40
2017-09-29T09:40:38.014Z,17.30
2017-09-29T09:43:12.560Z,17.40
2017-09-29T09:45:47.174Z,17.40
2017-09-29T09:48:21.895Z,17.20
2017-09-29T09:50:56.405Z,17.50
2017-09-29T09:53:31.078Z,17.00
2017-09-29T09:56:05.651Z,17.30
2017-09-29T09:58:40.385Z,17.50
2017-09-29T10:01:14.841Z,17.50
2017-09-29T10:03:49.350Z,17.10
2017-09-29T10:06:23.901Z,17.50
2017-09-29T10:08:59.285Z,17.60
2017-09-29T10:11:33.801Z,17.70
2017-09-29T10:14:08.758Z,18.10
2017-09-29T10:16:43.226Z,18.40
2017-09-29T10:19:17.746Z,18.10
2017-09-29T10:21:53.070Z,17.50
2017-09-29T10:24:27.661Z,17.50
2017-09-29T10:27:02.414Z,17.00
2017-09-29T10:29:37.075Z,17.00
2017-09-29T10:32:11.785Z,17.00
2017-09-29T10:34:46.475Z,17.10
2017-09-29T10:37:21.171Z,17.20
2017-09-29T10:39:56.618Z,17.10
2017-09-29T10:42:32.062Z,17.40
2017-09-29T10:45:14.886Z,17.30
2017-09-29T10:47:49.309Z,17.40
2017-09-29T10:50:23.973Z,17.70
2017-09-29T10:52:58.646Z,18.10
2017-09-29T10:55:33.416Z,18.30
2017-09-29T10:58:07.701Z,18.40
2017-09-29T11:00:42.221Z,18.10
2017-09-29T11:03:16.642Z,18.10
2017-09-29T11:05:51.043Z,17.50
2017-09-29T11:08:25.577Z,18.00
2017-09-29T11:11:00.183Z,17.80
2017-09-29T11:13:34.819Z,17.80
2017-09-29T11:16:09.041Z,17.70
2017-09-29T11:18:43.650Z,17.90
2017-09-29T11:21:18.430Z,17.60
2017-09-29T11:23:52.986Z,17.80
2017-09-29T11:26:27.538Z,18.20
2017-09-29T11:29:01.998Z,18.60
2017-09-29T11:31:36.495Z,18.30
2017-09-29T11:34:10.938Z,18.20
2017-09-29T11:36:46.238Z,18.10
2017-09-29T11:39:20.730Z,17.80
2017-09-29T11:41:55.327Z,17.90
2017-09-29T11:44:29.838Z,17.90
2017-09-29T11:47:04.391Z,18.20
2017-09-29T11:49:38.817Z,18.00
2017-09-29T11:52:13.362Z,18.10
2017-09-29T11:54:47.997Z,18.60
2017-09-29T11:57:22.554Z,18.60
2017-09-29T11:59:57.109Z,18.90
2017-09-29T12:02:31.701Z,19.20
2017-09-29T12:05:15.870Z,19.20
2017-09-29T12:07:51.278Z,19.30
2017-09-29T12:10:25.855Z,19.30
2017-09-29T12:13:00.342Z,19.30
2017-09-29T12:15:34.914Z,19.60
2017-09-29T12:18:09.418Z,19.50
2017-09-29T12:20:43.973Z,19.40
2017-09-29T12:23:18.721Z,19.60
2017-09-29T12:25:53.279Z,19.90
2017-09-29T12:28:27.821Z,20.30
2017-09-29T12:31:02.410Z,20.80
2017-09-29T12:33:37.017Z,20.00
2017-09-29T12:36:11.534Z,20.00
2017-09-29T12:38:46.078Z,21.30
2017-09-29T12:41:20.655Z,22.30
2017-09-29T12:43:55.419Z,22.60
2017-09-29T12:46:30.026Z,24.60
2017-09-29T12:49:04.445Z,26.40
2017-09-29T12:51:39.056Z,28.00
2017-09-29T12:54:13.765Z,28.70
2017-09-29T12:56:48.309Z,29.80
2017-09-29T12:59:23.136Z,30.40
2017-09-29T13:01:57.833Z,31.60
2017-09-29T13:04:32.733Z,31.40
2017-09-29T13:07:07.012Z,31.70
2017-09-29T13:09:41.389Z,32.40
2017-09-29T13:12:16.086Z,33.10
2017-09-29T13:14:50.830Z,34.10
2017-09-29T13:17:26.170Z,35.20
2017-09-29T13:20:00.631Z,35.10
2017-09-29T13:22:35.214Z,35.00
2017-09-29T13:25:09.765Z,34.70
2017-09-29T13:27:44.228Z,34.70
2017-09-29T13:30:18.961Z,34.60
2017-09-29T13:32:53.590Z,35.40
2017-09-29T13:35:28.068Z,36.00
2017-09-29T13:38:02.707Z,36.30
2017-09-29T13:40:37.230Z,36.00
2017-09-29T13:43:11.885Z,36.00
2017-09-29T13:45:47.149Z,36.20
2017-09-29T13:48:21.677Z,36.20
2017-09-29T13:50:56.177Z,36.00
2017-09-29T13:53:30.654Z,36.10
2017-09-29T13:56:05.242Z,36.70
2017-09-29T13:58:39.739Z,37.20
2017-09-29T14:01:14.285Z,37.20
2017-09-29T14:03:49.738Z,36.70
2017-09-29T14:06:24.246Z,36.70
2017-09-29T14:08:58.818Z,36.90
2017-09-29T14:11:33.406Z,37.00
2017-09-29T14:14:07.904Z,36.40
2017-09-29T14:16:42.578Z,36.50
2017-09-29T14:19:17.239Z,36.90
2017-09-29T14:21:51.661Z,36.80
2017-09-29T14:24:26.170Z,36.90
2017-09-29T14:27:00.826Z,37.20
2017-09-29T14:29:35.454Z,37.20
2017-09-29T14:32:10.068Z,37.50
2017-09-29T14:34:44.565Z,37.30
2017-09-29T14:37:19.162Z,37.30
2017-09-29T14:39:53.624Z,37.30
2017-09-29T14:42:28.113Z,37.40
2017-09-29T14:47:46.294Z,37.80
2017-09-29T14:50:20.896Z,37.70
2017-09-29T14:52:55.341Z,37.70
2017-09-29T14:55:29.845Z,38.00
2017-09-29T14:58:05.182Z,38.80
2017-09-29T15:00:39.710Z,38.70
2017-09-29T15:03:14.278Z,38.90
2017-09-29T15:05:48.865Z,39.20
2017-09-29T15:08:23.308Z,39.40
2017-09-29T15:10:57.882Z,39.10
2017-09-29T15:13:32.326Z,39.40
2017-09-29T15:16:06.905Z,39.50
2017-09-29T15:18:41.458Z,39.50
2017-09-29T15:21:16.066Z,39.70
2017-09-29T15:23:50.630Z,40.20
2017-09-29T15:26:25.166Z,40.50
2017-09-29T15:28:59.889Z,40.70
2017-09-29T15:31:34.629Z,40.60
2017-09-29T15:34:09.078Z,41.00
2017-09-29T15:36:43.613Z,41.10
2017-09-29T15:39:18.093Z,41.60
2017-09-29T15:41:52.662Z,41.80
2017-09-29T15:44:27.261Z,41.90
2017-09-29T15:47:01.874Z,42.50
2017-09-29T15:49:36.513Z,42.00
2017-09-29T15:52:11.046Z,41.90
2017-09-29T15:54:45.678Z,41.90
2017-09-29T15:57:20.253Z,41.90
2017-09-29T15:59:54.957Z,41.80
2017-09-29T16:02:29.542Z,42.10
2017-09-29T16:07:44.721Z,42.50
2017-09-29T16:10:19.218Z,42.70
2017-09-29T16:12:53.702Z,42.80
2017-09-29T16:15:28.493Z,42.90
2017-09-29T16:18:03.129Z,43.20
2017-09-29T16:20:37.618Z,43.30
2017-09-29T16:23:12.265Z,43.50
2017-09-29T16:25:46.772Z,43.80
2017-09-29T16:28:22.103Z,44.40
2017-09-29T16:30:56.666Z,44.30
2017-09-29T16:33:31.178Z,44.70
2017-09-29T16:36:05.746Z,45.20
2017-09-29T16:38:41.137Z,46.00
2017-09-29T16:41:15.818Z,46.00
2017-09-29T16:43:50.436Z,46.50
2017-09-29T16:46:25.173Z,46.60
2017-09-29T16:48:59.797Z,47.00
2017-09-29T16:51:34.385Z,47.10
2017-09-29T16:54:08.954Z,47.50
2017-09-29T16:56:43.477Z,47.60
2017-09-29T16:59:17.990Z,48.10
2017-09-29T17:01:52.512Z,48.30
2017-09-29T17:04:27.085Z,48.80
2017-09-29T17:07:02.438Z,50.30
2017-09-29T17:09:38.071Z,50.80
2017-09-29T17:12:12.913Z,50.70
2017-09-29T17:14:48.166Z,51.30
2017-09-29T17:17:22.861Z,51.20
2017-09-29T17:19:57.470Z,51.50
2017-09-29T17:22:32.058Z,51.80
2017-09-29T17:25:15.168Z,52.50
2017-09-29T17:27:49.788Z,52.80
2017-09-29T17:30:24.161Z,53.10
2017-09-29T17:32:58.841Z,53.30
2017-09-29T17:35:33.442Z,53.40
2017-09-29T17:38:08.234Z,53.50
2017-09-29T17:40:42.715Z,53.80
2017-09-29T17:43:17.218Z,53.90
2017-09-29T17:45:51.746Z,54.10
2017-09-29T17:48:27.077Z,54.30
2017-09-29T17:51:01.743Z,54.20
2017-09-29T17:53:36.425Z,54.50
2017-09-29T17:56:11.033Z,54.60
2017-09-29T17:58:45.601Z,54.90
2017-09-29T18:01:20.298Z,55.30
2017-09-29T18:03:55.775Z,56.00
2017-09-29T18:06:30.351Z,55.90
2017-09-29T18:09:06.537Z,56.50
2017-09-29T18:11:41.129Z,56.70
2017-09-29T18:14:15.720Z,56.90
2017-09-29T18:16:50.249Z,57.10
2017-09-29T18:19:24.900Z,57.10
2017-09-29T18:22:00.205Z,57.40
2017-09-29T18:24:34.850Z,57.30
2017-09-29T18:27:09.485Z,57.60
2017-09-29T18:29:44.146Z,57.50
2017-09-29T18:32:18.790Z,57.80
2017-09-29T18:34:53.309Z,57.80
2017-09-29T18:37:27.829Z,58.00
2017-09-29T18:42:45.601Z,57.90
2017-09-29T18:45:19.957Z,57.90
2017-09-29T18:47:54.653Z,58.00
2017-09-29T18:50:29.263Z,58.30
2017-09-29T18:53:03.718Z,58.60
2017-09-29T18:55:38.337Z,58.40
2017-09-29T18:58:12.925Z,58.40
2017-09-29T19:00:47.457Z,58.40
2017-09-29T19:03:22.108Z,58.80
2017-09-29T19:05:56.642Z,58.50
2017-09-29T19:08:31.473Z,58.50
2017-09-29T19:11:05.726Z,58.30
2017-09-29T19:13:40.305Z,58.30
2017-09-29T19:16:14.878Z,58.50
2017-09-29T19:18:49.561Z,58.40
2017-09-29T19:21:24.178Z,58.30
2017-09-29T19:23:58.709Z,58.50
2017-09-29T19:26:33.302Z,58.60
2017-09-29T19:29:07.761Z,58.80
2017-09-29T19:31:42.281Z,59.10
2017-09-29T19:34:16.901Z,59.30
2017-09-29T19:36:51.493Z,59.50
2017-09-29T19:39:26.203Z,59.90
2017-09-29T19:42:00.649Z,60.00
2017-09-29T19:44:35.288Z,60.20
2017-09-29T19:47:09.842Z,60.10
2017-09-29T19:49:44.345Z,60.40
2017-09-29T19:52:18.892Z,60.30
2017-09-29T19:54:53.377Z,60.10
2017-09-29T19:57:27.925Z,60.10
2017-09-29T20:00:02.629Z,59.90
2017-09-29T20:02:37.222Z,59.70
2017-09-29T20:05:13.979Z,59.80
2017-09-29T20:07:48.434Z,59.80
2017-09-29T20:10:23.019Z,59.90
2017-09-29T20:12:57.770Z,59.70
2017-09-29T20:15:32.274Z,59.80
2017-09-29T20:18:06.912Z,59.50
2017-09-29T20:20:41.547Z,59.40
2017-09-29T20:23:16.439Z,59.50
2017-09-29T20:25:50.934Z,59.60
2017-09-29T20:28:25.474Z,59.40
2017-09-29T20:31:00.090Z,59.40
2017-09-29T20:33:34.543Z,59.20
2017-09-29T20:36:09.106Z,59.70
2017-09-29T20:38:43.645Z,59.20
2017-09-29T20:41:18.214Z,59.00
2017-09-29T20:43:52.749Z,59.10
2017-09-29T20:46:27.310Z,59.00
2017-09-29T20:49:01.781Z,59.20
2017-09-29T20:51:36.322Z,58.80
2017-09-29T20:54:10.885Z,58.90
2017-09-29T20:56:45.531Z,58.80
2017-09-29T20:59:20.037Z,58.60
2017-09-29T21:01:54.586Z,58.60
2017-09-29T21:04:29.034Z,58.50
2017-09-29T21:07:03.715Z,58.50
2017-09-29T21:09:38.326Z,58.50
2017-09-29T21:12:12.861Z,58.40
2017-09-29T21:14:47.464Z,58.40
2017-09-29T21:17:21.950Z,58.40
2017-09-29T21:19:56.502Z,58.70
2017-09-29T21:22:30.974Z,58.60
2017-09-29T21:25:12.614Z,58.60
2017-09-29T21:27:47.066Z,58.60
2017-09-29T21:30:21.678Z,58.60
2017-09-29T21:32:56.556Z,58.60
2017-09-29T21:35:31.066Z,58.60
2017-09-29T21:38:05.742Z,58.70
2017-09-29T21:40:40.330Z,59.00
2017-09-29T21:43:14.948Z,59.20
2017-09-29T21:45:49.403Z,59.20
2017-09-29T21:48:23.941Z,59.10
2017-09-29T21:50:58.481Z,58.90
2017-09-29T21:53:33.078Z,58.80
2017-09-29T21:56:07.678Z,58.90
2017-09-29T21:58:42.322Z,58.90
2017-09-29T22:01:16.897Z,59.10
2017-09-29T22:03:51.661Z,59.20
2017-09-29T22:06:26.192Z,59.20
2017-09-29T22:09:00.789Z,59.00
2017-09-29T22:11:36.119Z,58.00
2017-09-29T22:14:10.573Z,58.00
2017-09-29T22:16:45.120Z,58.10
2017-09-29T22:19:19.563Z,58.20
2017-09-29T22:21:54.126Z,58.30
2017-09-29T22:24:28.681Z,58.50
2017-09-29T22:27:03.334Z,58.80
2017-09-29T22:29:37.985Z,58.60
2017-09-29T22:32:12.573Z,58.50
2017-09-29T22:34:47.205Z,58.80
2017-09-29T22:37:21.743Z,58.90
2017-09-29T22:39:56.181Z,58.90
2017-09-29T22:42:30.730Z,59.00
2017-09-29T22:45:13.650Z,59.00
2017-09-29T22:47:48.177Z,59.10
2017-09-29T22:50:22.762Z,59.20
2017-09-29T22:52:57.382Z,59.20
2017-09-29T22:55:31.986Z,59.40
2017-09-29T22:58:07.389Z,59.30
2017-09-29T23:00:41.883Z,59.30
2017-09-29T23:03:16.413Z,59.30
2017-09-29T23:05:50.973Z,59.30
2017-09-29T23:08:26.390Z,59.40
2017-09-29T23:11:00.861Z,59.20
2017-09-29T23:13:35.321Z,59.10
2017-09-29T23:16:10.002Z,59.20
2017-09-29T23:18:44.434Z,59.00
2017-09-29T23:21:19.066Z,59.00
2017-09-29T23:23:53.569Z,59.20
2017-09-29T23:26:28.117Z,58.90
2017-09-29T23:29:02.655Z,58.80
2017-09-29T23:31:37.919Z,58.70
2017-09-29T23:34:13.213Z,58.60
2017-09-29T23:36:47.714Z,58.50
2017-09-29T23:39:22.195Z,58.30
2017-09-29T23:41:56.757Z,58.40
2017-09-29T23:44:31.593Z,58.30
2017-09-29T23:47:07.020Z,57.80
2017-09-29T23:49:41.503Z,57.80
2017-09-29T23:52:16.235Z,57.80
2017-09-29T23:54:50.941Z,57.80
2017-09-29T23:57:25.515Z,57.60
